sensor_id;sensor_type;location;lat;lon;timestamp;temperature;humidity
16970;DHT22;8601;48.718;8.992;2022-11-02T00:00:19;8.80;99.90
16970;DHT22;8601;48.718;8.992;2022-11-02T00:02:45;8.70;99.90
16970;DHT22;8601;48.718;8.992;2022-11-02T00:05:32;8.70;99.90
16970;DHT22;8601;48.718;8.992;2022-11-02T00:07:59;8.70;99.90
16970;DHT22;8601;48.718;8.992;2022-11-02T00:10:26;8.80;99.90
16970;DHT22;8601;48.718;8.992;2022-11-02T00:12:54;8.80;99.90
16970;DHT22;8601;48.718;8.992;2022-11-02T00:15:23;8.80;99.90
16970;DHT22;8601;48.718;8.992;2022-11-02T00:17:54;8.90;99.90
16970;DHT22;8601;48.718;8.992;2022-11-02T00:20:22;8.90;99.90
16970;DHT22;8601;48.718;8.992;2022-11-02T00:22:54;8.90;99.90
16970;DHT22;8601;48.718;8.992;2022-11-02T00:25:38;8.80;99.90
16970;DHT22;8601;48.718;8.992;2022-11-02T00:28:06;8.80;99.90
16970;DHT22;8601;48.718;8.992;2022-11-02T00:30:34;8.80;99.90
16970;DHT22;8601;48.718;8.992;2022-11-02T00:33:01;8.90;99.90
16970;DHT22;8601;48.718;8.992;2022-11-02T00:35:28;8.90;99.90
16970;DHT22;8601;48.718;8.992;2022-11-02T00:37:56;8.80;99.90
16970;DHT22;8601;48.718;8.992;2022-11-02T00:40:23;8.70;99.90
16970;DHT22;8601;48.718;8.992;2022-11-02T00:42:50;8.70;99.90
16970;DHT22;8601;48.718;8.992;2022-11-02T00:45:16;8.80;99.90
16970;DHT22;8601;48.718;8.992;2022-11-02T00:47:43;8.80;99.90
16970;DHT22;8601;48.718;8.992;2022-11-02T00:50:12;8.80;99.90
16970;DHT22;8601;48.718;8.992;2022-11-02T00:52:39;8.70;99.90
16970;DHT22;8601;48.718;8.992;2022-11-02T00:55:09;8.80;99.90
16970;DHT22;8601;48.718;8.992;2022-11-02T00:57:38;8.80;99.90
16970;DHT22;8601;48.718;8.992;2022-11-02T01:00:06;8.70;99.90
16970;DHT22;8601;48.718;8.992;2022-11-02T01:02:35;8.70;99.90
16970;DHT22;8601;48.718;8.992;2022-11-02T01:05:02;8.70;99.90
16970;DHT22;8601;48.718;8.992;2022-11-02T01:07:30;8.70;99.90
16970;DHT22;8601;48.718;8.992;2022-11-02T01:09:57;8.70;99.90
16970;DHT22;8601;48.718;8.992;2022-11-02T01:12:25;8.70;99.90
16970;DHT22;8601;48.718;8.992;2022-11-02T01:14:52;8.70;99.90
16970;DHT22;8601;48.718;8.992;2022-11-02T01:17:19;8.70;99.90
16970;DHT22;8601;48.718;8.992;2022-11-02T01:19:46;8.70;99.90
16970;DHT22;8601;48.718;8.992;2022-11-02T01:22:13;8.70;99.90
16970;DHT22;8601;48.718;8.992;2022-11-02T01:24:40;8.80;99.90
16970;DHT22;8601;48.718;8.992;2022-11-02T01:27:07;8.80;99.90
16970;DHT22;8601;48.718;8.992;2022-11-02T01:29:36;8.70;99.90
16970;DHT22;8601;48.718;8.992;2022-11-02T01:32:03;8.80;99.90
16970;DHT22;8601;48.718;8.992;2022-11-02T01:34:30;8.80;99.90
16970;DHT22;8601;48.718;8.992;2022-11-02T01:36:56;8.80;99.90
16970;DHT22;8601;48.718;8.992;2022-11-02T01:39:23;8.80;99.90
16970;DHT22;8601;48.718;8.992;2022-11-02T01:41:51;8.90;99.90
16970;DHT22;8601;48.718;8.992;2022-11-02T01:44:27;8.90;99.90
16970;DHT22;8601;48.718;8.992;2022-11-02T01:46:59;9.00;99.90
16970;DHT22;8601;48.718;8.992;2022-11-02T01:49:28;9.00;99.90
16970;DHT22;8601;48.718;8.992;2022-11-02T01:52:16;9.00;99.90
16970;DHT22;8601;48.718;8.992;2022-11-02T01:54:49;9.00;99.90
16970;DHT22;8601;48.718;8.992;2022-11-02T01:57:19;9.00;99.90
16970;DHT22;8601;48.718;8.992;2022-11-02T01:59:49;9.00;99.90
16970;DHT22;8601;48.718;8.992;2022-11-02T02:02:20;8.90;99.90
16970;DHT22;8601;48.718;8.992;2022-11-02T02:04:50;8.90;99.90
16970;DHT22;8601;48.718;8.992;2022-11-02T02:07:18;9.00;99.90
16970;DHT22;8601;48.718;8.992;2022-11-02T02:09:46;9.00;99.90
16970;DHT22;8601;48.718;8.992;2022-11-02T02:12:13;9.00;99.90
16970;DHT22;8601;48.718;8.992;2022-11-02T02:14:55;9.10;99.90
16970;DHT22;8601;48.718;8.992;2022-11-02T02:17:31;9.10;99.90
16970;DHT22;8601;48.718;8.992;2022-11-02T02:20:06;9.00;99.90
16970;DHT22;8601;48.718;8.992;2022-11-02T02:22:46;9.00;99.90
16970;DHT22;8601;48.718;8.992;2022-11-02T02:25:31;9.10;99.90
16970;DHT22;8601;48.718;8.992;2022-11-02T02:28:09;9.10;99.90
16970;DHT22;8601;48.718;8.992;2022-11-02T02:30:59;9.20;99.90
16970;DHT22;8601;48.718;8.992;2022-11-02T02:33:33;9.20;99.90
16970;DHT22;8601;48.718;8.992;2022-11-02T02:36:04;9.20;99.90
16970;DHT22;8601;48.718;8.992;2022-11-02T02:38:34;9.20;99.90
16970;DHT22;8601;48.718;8.992;2022-11-02T02:41:09;9.30;99.90
16970;DHT22;8601;48.718;8.992;2022-11-02T02:43:41;9.30;99.90
16970;DHT22;8601;48.718;8.992;2022-11-02T02:46:17;9.30;99.90
16970;DHT22;8601;48.718;8.992;2022-11-02T02:48:46;9.30;99.90
16970;DHT22;8601;48.718;8.992;2022-11-02T02:51:17;9.30;99.90
16970;DHT22;8601;48.718;8.992;2022-11-02T02:53:59;9.40;99.90
16970;DHT22;8601;48.718;8.992;2022-11-02T02:56:30;9.40;99.90
16970;DHT22;8601;48.718;8.992;2022-11-02T02:59:32;9.40;99.90
16970;DHT22;8601;48.718;8.992;2022-11-02T03:02:04;9.40;99.90
16970;DHT22;8601;48.718;8.992;2022-11-02T03:04:32;9.40;99.90
16970;DHT22;8601;48.718;8.992;2022-11-02T03:07:05;9.40;99.90
16970;DHT22;8601;48.718;8.992;2022-11-02T03:09:39;9.40;99.90
16970;DHT22;8601;48.718;8.992;2022-11-02T03:12:22;9.40;99.90
16970;DHT22;8601;48.718;8.992;2022-11-02T03:15:06;9.40;99.90
16970;DHT22;8601;48.718;8.992;2022-11-02T03:17:44;9.40;99.90
16970;DHT22;8601;48.718;8.992;2022-11-02T03:20:20;9.50;99.90
16970;DHT22;8601;48.718;8.992;2022-11-02T03:22:52;9.50;99.90
16970;DHT22;8601;48.718;8.992;2022-11-02T03:25:25;9.50;99.90
16970;DHT22;8601;48.718;8.992;2022-11-02T03:27:57;9.50;99.90
16970;DHT22;8601;48.718;8.992;2022-11-02T03:30:32;9.50;99.90
16970;DHT22;8601;48.718;8.992;2022-11-02T03:33:05;9.50;99.90
16970;DHT22;8601;48.718;8.992;2022-11-02T03:35:46;9.50;99.90
16970;DHT22;8601;48.718;8.992;2022-11-02T03:38:16;9.50;99.90
16970;DHT22;8601;48.718;8.992;2022-11-02T03:40:46;9.50;99.90
16970;DHT22;8601;48.718;8.992;2022-11-02T03:43:16;9.60;99.90
16970;DHT22;8601;48.718;8.992;2022-11-02T03:45:49;9.40;99.90
16970;DHT22;8601;48.718;8.992;2022-11-02T03:48:17;9.50;99.90
16970;DHT22;8601;48.718;8.992;2022-11-02T03:50:51;9.40;99.90
16970;DHT22;8601;48.718;8.992;2022-11-02T03:53:23;9.40;99.90
16970;DHT22;8601;48.718;8.992;2022-11-02T03:55:58;9.40;99.90
16970;DHT22;8601;48.718;8.992;2022-11-02T03:58:26;9.40;99.90
16970;DHT22;8601;48.718;8.992;2022-11-02T04:00:55;9.30;99.90
16970;DHT22;8601;48.718;8.992;2022-11-02T04:03:24;9.30;99.90
16970;DHT22;8601;48.718;8.992;2022-11-02T04:05:51;9.30;99.90
16970;DHT22;8601;48.718;8.992;2022-11-02T04:08:23;9.30;99.90
16970;DHT22;8601;48.718;8.992;2022-11-02T04:10:53;9.30;99.90
16970;DHT22;8601;48.718;8.992;2022-11-02T04:13:38;9.30;99.90
16970;DHT22;8601;48.718;8.992;2022-11-02T04:16:23;9.30;99.90
16970;DHT22;8601;48.718;8.992;2022-11-02T04:18:50;9.30;99.90
16970;DHT22;8601;48.718;8.992;2022-11-02T04:21:46;9.30;99.90
16970;DHT22;8601;48.718;8.992;2022-11-02T04:24:27;9.30;99.90
16970;DHT22;8601;48.718;8.992;2022-11-02T04:27:11;9.20;99.90
16970;DHT22;8601;48.718;8.992;2022-11-02T04:29:38;9.20;99.90
16970;DHT22;8601;48.718;8.992;2022-11-02T04:32:07;9.30;99.90
16970;DHT22;8601;48.718;8.992;2022-11-02T04:34:34;9.30;99.90
16970;DHT22;8601;48.718;8.992;2022-11-02T04:36:59;9.30;99.90
16970;DHT22;8601;48.718;8.992;2022-11-02T04:39:46;9.20;99.90
16970;DHT22;8601;48.718;8.992;2022-11-02T04:42:12;9.20;99.90
16970;DHT22;8601;48.718;8.992;2022-11-02T04:44:39;9.20;99.90
16970;DHT22;8601;48.718;8.992;2022-11-02T04:47:07;9.20;99.90
16970;DHT22;8601;48.718;8.992;2022-11-02T04:49:34;9.10;99.90
16970;DHT22;8601;48.718;8.992;2022-11-02T04:52:01;9.10;99.90
16970;DHT22;8601;48.718;8.992;2022-11-02T04:54:28;9.20;99.90
16970;DHT22;8601;48.718;8.992;2022-11-02T04:56:54;9.30;99.90
16970;DHT22;8601;48.718;8.992;2022-11-02T04:59:21;9.30;99.90
16970;DHT22;8601;48.718;8.992;2022-11-02T05:01:48;9.30;99.90
16970;DHT22;8601;48.718;8.992;2022-11-02T05:04:16;9.30;99.90
16970;DHT22;8601;48.718;8.992;2022-11-02T05:06:46;9.30;99.90
16970;DHT22;8601;48.718;8.992;2022-11-02T05:09:13;9.30;99.90
16970;DHT22;8601;48.718;8.992;2022-11-02T05:11:40;9.30;99.90
16970;DHT22;8601;48.718;8.992;2022-11-02T05:14:07;9.30;99.90
16970;DHT22;8601;48.718;8.992;2022-11-02T05:16:34;9.30;99.90
16970;DHT22;8601;48.718;8.992;2022-11-02T05:19:01;9.40;99.90
16970;DHT22;8601;48.718;8.992;2022-11-02T05:21:29;9.30;99.90
16970;DHT22;8601;48.718;8.992;2022-11-02T05:23:56;9.30;99.90
16970;DHT22;8601;48.718;8.992;2022-11-02T05:26:23;9.30;99.90
16970;DHT22;8601;48.718;8.992;2022-11-02T05:28:49;9.30;99.90
16970;DHT22;8601;48.718;8.992;2022-11-02T05:31:17;9.20;99.90
16970;DHT22;8601;48.718;8.992;2022-11-02T05:33:44;9.30;99.90
16970;DHT22;8601;48.718;8.992;2022-11-02T05:36:11;9.30;99.90
16970;DHT22;8601;48.718;8.992;2022-11-02T05:38:39;9.30;99.90
16970;DHT22;8601;48.718;8.992;2022-11-02T05:41:06;9.30;99.90
16970;DHT22;8601;48.718;8.992;2022-11-02T05:43:34;9.30;99.90
16970;DHT22;8601;48.718;8.992;2022-11-02T05:46:06;9.30;99.90
16970;DHT22;8601;48.718;8.992;2022-11-02T05:48:33;9.30;99.90
16970;DHT22;8601;48.718;8.992;2022-11-02T05:53:54;9.30;99.90
16970;DHT22;8601;48.718;8.992;2022-11-02T05:56:21;9.30;99.90
16970;DHT22;8601;48.718;8.992;2022-11-02T05:58:48;9.40;99.90
16970;DHT22;8601;48.718;8.992;2022-11-02T06:01:15;9.30;99.90
16970;DHT22;8601;48.718;8.992;2022-11-02T06:03:42;9.40;99.90
16970;DHT22;8601;48.718;8.992;2022-11-02T06:06:09;9.40;99.90
16970;DHT22;8601;48.718;8.992;2022-11-02T06:08:37;9.40;99.90
16970;DHT22;8601;48.718;8.992;2022-11-02T06:11:08;9.40;99.90
16970;DHT22;8601;48.718;8.992;2022-11-02T06:13:36;9.40;99.90
16970;DHT22;8601;48.718;8.992;2022-11-02T06:16:04;9.40;99.90
16970;DHT22;8601;48.718;8.992;2022-11-02T06:18:32;9.50;99.90
16970;DHT22;8601;48.718;8.992;2022-11-02T06:20:59;9.50;99.90
16970;DHT22;8601;48.718;8.992;2022-11-02T06:23:27;9.50;99.90
16970;DHT22;8601;48.718;8.992;2022-11-02T06:25:55;9.50;99.90
16970;DHT22;8601;48.718;8.992;2022-11-02T06:28:25;9.50;99.90
16970;DHT22;8601;48.718;8.992;2022-11-02T06:30:53;9.50;99.90
16970;DHT22;8601;48.718;8.992;2022-11-02T06:33:20;9.50;99.90
16970;DHT22;8601;48.718;8.992;2022-11-02T06:35:53;9.50;99.90
16970;DHT22;8601;48.718;8.992;2022-11-02T06:38:20;9.50;99.90
16970;DHT22;8601;48.718;8.992;2022-11-02T06:40:58;9.50;99.90
16970;DHT22;8601;48.718;8.992;2022-11-02T06:43:28;9.60;99.90
16970;DHT22;8601;48.718;8.992;2022-11-02T06:45:55;9.60;99.90
16970;DHT22;8601;48.718;8.992;2022-11-02T06:48:23;9.70;99.90
16970;DHT22;8601;48.718;8.992;2022-11-02T06:50:50;9.70;99.90
16970;DHT22;8601;48.718;8.992;2022-11-02T06:53:17;9.70;99.90
16970;DHT22;8601;48.718;8.992;2022-11-02T06:55:44;9.70;99.90
16970;DHT22;8601;48.718;8.992;2022-11-02T06:58:11;9.80;99.90
16970;DHT22;8601;48.718;8.992;2022-11-02T07:00:41;9.80;99.90
16970;DHT22;8601;48.718;8.992;2022-11-02T07:03:09;9.80;99.90
16970;DHT22;8601;48.718;8.992;2022-11-02T07:05:36;9.80;99.90
16970;DHT22;8601;48.718;8.992;2022-11-02T07:08:08;9.80;99.90
16970;DHT22;8601;48.718;8.992;2022-11-02T07:10:35;9.80;99.90
16970;DHT22;8601;48.718;8.992;2022-11-02T07:13:02;9.90;99.90
16970;DHT22;8601;48.718;8.992;2022-11-02T07:15:44;9.90;99.90
16970;DHT22;8601;48.718;8.992;2022-11-02T07:18:11;9.90;99.90
16970;DHT22;8601;48.718;8.992;2022-11-02T07:20:38;9.90;99.90
16970;DHT22;8601;48.718;8.992;2022-11-02T07:23:05;9.90;99.90
16970;DHT22;8601;48.718;8.992;2022-11-02T07:25:33;9.90;99.90
16970;DHT22;8601;48.718;8.992;2022-11-02T07:28:01;9.90;99.90
16970;DHT22;8601;48.718;8.992;2022-11-02T07:30:28;9.90;99.90
16970;DHT22;8601;48.718;8.992;2022-11-02T07:32:57;10.00;99.90
16970;DHT22;8601;48.718;8.992;2022-11-02T07:35:33;10.00;99.90
16970;DHT22;8601;48.718;8.992;2022-11-02T07:38:01;10.00;99.90
16970;DHT22;8601;48.718;8.992;2022-11-02T07:40:29;10.10;99.90
16970;DHT22;8601;48.718;8.992;2022-11-02T07:42:58;10.10;99.90
16970;DHT22;8601;48.718;8.992;2022-11-02T07:45:25;10.10;99.90
16970;DHT22;8601;48.718;8.992;2022-11-02T07:47:53;10.20;99.90
16970;DHT22;8601;48.718;8.992;2022-11-02T07:50:23;10.20;99.90
16970;DHT22;8601;48.718;8.992;2022-11-02T07:52:52;10.30;99.90
16970;DHT22;8601;48.718;8.992;2022-11-02T07:55:21;10.60;99.90
16970;DHT22;8601;48.718;8.992;2022-11-02T07:57:57;10.80;99.90
16970;DHT22;8601;48.718;8.992;2022-11-02T08:00:25;10.70;99.90
16970;DHT22;8601;48.718;8.992;2022-11-02T08:02:55;10.70;99.90
16970;DHT22;8601;48.718;8.992;2022-11-02T08:05:25;10.80;99.90
16970;DHT22;8601;48.718;8.992;2022-11-02T08:07:56;10.80;99.90
16970;DHT22;8601;48.718;8.992;2022-11-02T08:10:23;10.90;99.90
16970;DHT22;8601;48.718;8.992;2022-11-02T08:12:50;11.00;99.90
16970;DHT22;8601;48.718;8.992;2022-11-02T08:15:17;11.00;99.90
16970;DHT22;8601;48.718;8.992;2022-11-02T08:17:44;11.10;99.90
16970;DHT22;8601;48.718;8.992;2022-11-02T08:20:10;11.10;99.90
16970;DHT22;8601;48.718;8.992;2022-11-02T08:23:05;11.70;99.90
16970;DHT22;8601;48.718;8.992;2022-11-02T08:25:35;11.70;99.90
16970;DHT22;8601;48.718;8.992;2022-11-02T08:28:19;11.70;99.90
16970;DHT22;8601;48.718;8.992;2022-11-02T08:30:52;11.80;99.90
16970;DHT22;8601;48.718;8.992;2022-11-02T08:33:20;11.90;99.90
16970;DHT22;8601;48.718;8.992;2022-11-02T08:35:48;12.00;99.90
16970;DHT22;8601;48.718;8.992;2022-11-02T08:38:17;12.00;99.90
16970;DHT22;8601;48.718;8.992;2022-11-02T08:40:51;12.00;99.90
16970;DHT22;8601;48.718;8.992;2022-11-02T08:43:17;12.10;99.90
16970;DHT22;8601;48.718;8.992;2022-11-02T08:45:44;12.10;99.90
16970;DHT22;8601;48.718;8.992;2022-11-02T08:48:11;12.10;99.90
16970;DHT22;8601;48.718;8.992;2022-11-02T08:50:49;12.10;99.90
16970;DHT22;8601;48.718;8.992;2022-11-02T08:53:17;12.10;99.90
16970;DHT22;8601;48.718;8.992;2022-11-02T08:55:44;12.10;99.90
16970;DHT22;8601;48.718;8.992;2022-11-02T08:58:11;12.20;99.90
16970;DHT22;8601;48.718;8.992;2022-11-02T09:00:38;12.30;99.90
16970;DHT22;8601;48.718;8.992;2022-11-02T09:03:07;12.40;99.90
16970;DHT22;8601;48.718;8.992;2022-11-02T09:05:35;12.40;99.90
16970;DHT22;8601;48.718;8.992;2022-11-02T09:08:08;12.50;99.90
16970;DHT22;8601;48.718;8.992;2022-11-02T09:10:36;12.50;99.90
16970;DHT22;8601;48.718;8.992;2022-11-02T09:13:05;12.60;99.90
16970;DHT22;8601;48.718;8.992;2022-11-02T09:15:33;12.60;99.90
16970;DHT22;8601;48.718;8.992;2022-11-02T09:18:01;12.60;99.90
16970;DHT22;8601;48.718;8.992;2022-11-02T09:20:27;12.60;99.90
16970;DHT22;8601;48.718;8.992;2022-11-02T09:22:54;12.60;99.90
16970;DHT22;8601;48.718;8.992;2022-11-02T09:25:21;12.60;99.90
16970;DHT22;8601;48.718;8.992;2022-11-02T09:27:53;12.60;99.90
16970;DHT22;8601;48.718;8.992;2022-11-02T09:30:31;12.60;99.90
16970;DHT22;8601;48.718;8.992;2022-11-02T09:32:59;12.60;99.90
16970;DHT22;8601;48.718;8.992;2022-11-02T09:35:28;12.70;99.90
16970;DHT22;8601;48.718;8.992;2022-11-02T09:37:55;12.70;99.90
16970;DHT22;8601;48.718;8.992;2022-11-02T09:40:36;12.70;99.90
16970;DHT22;8601;48.718;8.992;2022-11-02T09:43:11;12.70;99.90
16970;DHT22;8601;48.718;8.992;2022-11-02T09:45:47;12.80;99.90
16970;DHT22;8601;48.718;8.992;2022-11-02T09:48:19;12.80;99.90
16970;DHT22;8601;48.718;8.992;2022-11-02T09:50:51;12.80;99.90
16970;DHT22;8601;48.718;8.992;2022-11-02T09:53:26;12.90;99.90
16970;DHT22;8601;48.718;8.992;2022-11-02T09:55:58;12.90;99.90
16970;DHT22;8601;48.718;8.992;2022-11-02T09:58:32;13.00;99.90
16970;DHT22;8601;48.718;8.992;2022-11-02T10:01:08;12.90;99.90
16970;DHT22;8601;48.718;8.992;2022-11-02T10:03:46;13.00;99.90
16970;DHT22;8601;48.718;8.992;2022-11-02T10:06:17;13.00;99.90
16970;DHT22;8601;48.718;8.992;2022-11-02T10:08:50;13.10;99.90
16970;DHT22;8601;48.718;8.992;2022-11-02T10:11:31;13.10;99.90
16970;DHT22;8601;48.718;8.992;2022-11-02T10:14:08;13.10;99.90
16970;DHT22;8601;48.718;8.992;2022-11-02T10:16:41;13.20;99.90
16970;DHT22;8601;48.718;8.992;2022-11-02T10:19:13;13.50;99.90
16970;DHT22;8601;48.718;8.992;2022-11-02T10:21:43;13.30;99.90
16970;DHT22;8601;48.718;8.992;2022-11-02T10:24:22;13.30;99.90
16970;DHT22;8601;48.718;8.992;2022-11-02T10:26:50;13.20;99.90
16970;DHT22;8601;48.718;8.992;2022-11-02T10:29:29;13.30;99.90
16970;DHT22;8601;48.718;8.992;2022-11-02T10:32:00;13.20;99.90
16970;DHT22;8601;48.718;8.992;2022-11-02T10:34:28;13.20;99.90
16970;DHT22;8601;48.718;8.992;2022-11-02T10:37:06;13.20;99.90
16970;DHT22;8601;48.718;8.992;2022-11-02T10:39:41;13.20;99.90
16970;DHT22;8601;48.718;8.992;2022-11-02T10:42:21;13.30;99.90
16970;DHT22;8601;48.718;8.992;2022-11-02T10:45:11;13.40;99.90
16970;DHT22;8601;48.718;8.992;2022-11-02T10:47:56;13.30;99.90
16970;DHT22;8601;48.718;8.992;2022-11-02T10:50:41;13.30;99.90
16970;DHT22;8601;48.718;8.992;2022-11-02T10:53:13;13.40;99.90
16970;DHT22;8601;48.718;8.992;2022-11-02T10:55:48;13.30;99.90
16970;DHT22;8601;48.718;8.992;2022-11-02T10:58:27;13.40;99.90
16970;DHT22;8601;48.718;8.992;2022-11-02T11:01:05;13.40;99.90
16970;DHT22;8601;48.718;8.992;2022-11-02T11:03:32;13.50;99.90
16970;DHT22;8601;48.718;8.992;2022-11-02T11:06:01;13.60;99.90
16970;DHT22;8601;48.718;8.992;2022-11-02T11:08:33;13.70;99.90
16970;DHT22;8601;48.718;8.992;2022-11-02T11:11:14;13.70;99.90
16970;DHT22;8601;48.718;8.992;2022-11-02T11:13:45;13.60;99.90
16970;DHT22;8601;48.718;8.992;2022-11-02T11:16:33;13.60;99.90
16970;DHT22;8601;48.718;8.992;2022-11-02T11:19:01;13.60;99.90
16970;DHT22;8601;48.718;8.992;2022-11-02T11:21:44;13.60;99.90
16970;DHT22;8601;48.718;8.992;2022-11-02T11:24:27;13.60;99.90
16970;DHT22;8601;48.718;8.992;2022-11-02T11:27:12;13.70;99.90
16970;DHT22;8601;48.718;8.992;2022-11-02T11:29:44;13.80;99.90
16970;DHT22;8601;48.718;8.992;2022-11-02T11:32:15;13.80;99.90
16970;DHT22;8601;48.718;8.992;2022-11-02T11:34:55;13.80;99.90
16970;DHT22;8601;48.718;8.992;2022-11-02T11:37:24;14.00;99.90
16970;DHT22;8601;48.718;8.992;2022-11-02T11:39:54;14.30;99.90
16970;DHT22;8601;48.718;8.992;2022-11-02T11:42:25;14.30;99.90
16970;DHT22;8601;48.718;8.992;2022-11-02T11:45:06;14.30;99.90
16970;DHT22;8601;48.718;8.992;2022-11-02T11:47:37;14.40;99.90
16970;DHT22;8601;48.718;8.992;2022-11-02T11:50:06;14.70;99.20
16970;DHT22;8601;48.718;8.992;2022-11-02T11:52:37;14.50;97.90
16970;DHT22;8601;48.718;8.992;2022-11-02T11:55:19;14.30;98.10
16970;DHT22;8601;48.718;8.992;2022-11-02T11:58:03;14.20;98.30
16970;DHT22;8601;48.718;8.992;2022-11-02T12:00:30;14.00;98.50
16970;DHT22;8601;48.718;8.992;2022-11-02T12:03:05;13.90;97.80
16970;DHT22;8601;48.718;8.992;2022-11-02T12:05:46;13.80;98.40
16970;DHT22;8601;48.718;8.992;2022-11-02T12:08:25;13.60;97.60
16970;DHT22;8601;48.718;8.992;2022-11-02T12:13:57;13.60;97.40
16970;DHT22;8601;48.718;8.992;2022-11-02T12:16:32;13.50;97.90
16970;DHT22;8601;48.718;8.992;2022-11-02T12:19:23;13.70;97.30
16970;DHT22;8601;48.718;8.992;2022-11-02T12:22:02;13.90;96.80
16970;DHT22;8601;48.718;8.992;2022-11-02T12:24:55;14.00;96.70
16970;DHT22;8601;48.718;8.992;2022-11-02T12:27:33;14.30;96.90
16970;DHT22;8601;48.718;8.992;2022-11-02T12:30:11;14.50;95.70
16970;DHT22;8601;48.718;8.992;2022-11-02T12:33:04;14.60;94.40
16970;DHT22;8601;48.718;8.992;2022-11-02T12:38:38;14.90;94.50
16970;DHT22;8601;48.718;8.992;2022-11-02T12:41:11;15.00;93.50
16970;DHT22;8601;48.718;8.992;2022-11-02T12:43:41;14.80;92.70
16970;DHT22;8601;48.718;8.992;2022-11-02T12:46:16;14.90;92.90
16970;DHT22;8601;48.718;8.992;2022-11-02T12:48:54;15.00;93.40
16970;DHT22;8601;48.718;8.992;2022-11-02T12:51:27;15.10;91.50
16970;DHT22;8601;48.718;8.992;2022-11-02T12:53:57;15.10;91.40
16970;DHT22;8601;48.718;8.992;2022-11-02T12:56:29;15.20;90.50
16970;DHT22;8601;48.718;8.992;2022-11-02T12:58:57;15.30;89.90
16970;DHT22;8601;48.718;8.992;2022-11-02T13:01:28;15.40;89.40
16970;DHT22;8601;48.718;8.992;2022-11-02T13:03:59;15.40;89.90
16970;DHT22;8601;48.718;8.992;2022-11-02T13:06:33;15.50;89.60
16970;DHT22;8601;48.718;8.992;2022-11-02T13:09:04;15.40;88.10
16970;DHT22;8601;48.718;8.992;2022-11-02T13:11:36;15.30;88.40
16970;DHT22;8601;48.718;8.992;2022-11-02T13:14:08;15.30;87.70
16970;DHT22;8601;48.718;8.992;2022-11-02T13:16:47;15.20;87.00
16970;DHT22;8601;48.718;8.992;2022-11-02T13:19:19;15.10;87.30
16970;DHT22;8601;48.718;8.992;2022-11-02T13:21:50;15.10;88.40
16970;DHT22;8601;48.718;8.992;2022-11-02T13:24:22;15.10;87.20
16970;DHT22;8601;48.718;8.992;2022-11-02T13:26:52;15.20;92.10
16970;DHT22;8601;48.718;8.992;2022-11-02T13:29:38;15.30;89.10
16970;DHT22;8601;48.718;8.992;2022-11-02T13:32:10;15.30;87.70
16970;DHT22;8601;48.718;8.992;2022-11-02T13:34:42;15.30;87.90
16970;DHT22;8601;48.718;8.992;2022-11-02T13:37:21;15.40;88.90
16970;DHT22;8601;48.718;8.992;2022-11-02T13:39:52;15.50;86.20
16970;DHT22;8601;48.718;8.992;2022-11-02T13:42:39;15.40;87.20
16970;DHT22;8601;48.718;8.992;2022-11-02T13:48:30;15.40;86.60
16970;DHT22;8601;48.718;8.992;2022-11-02T13:51:05;15.40;88.50
16970;DHT22;8601;48.718;8.992;2022-11-02T13:53:39;15.50;86.90
16970;DHT22;8601;48.718;8.992;2022-11-02T13:56:11;15.40;85.50
16970;DHT22;8601;48.718;8.992;2022-11-02T13:58:53;15.20;84.50
16970;DHT22;8601;48.718;8.992;2022-11-02T14:01:21;15.20;86.20
16970;DHT22;8601;48.718;8.992;2022-11-02T14:03:51;15.10;86.00
16970;DHT22;8601;48.718;8.992;2022-11-02T14:06:21;15.10;86.50
16970;DHT22;8601;48.718;8.992;2022-11-02T14:08:52;15.20;86.10
16970;DHT22;8601;48.718;8.992;2022-11-02T14:11:34;15.20;87.10
16970;DHT22;8601;48.718;8.992;2022-11-02T14:17:11;15.10;86.80
16970;DHT22;8601;48.718;8.992;2022-11-02T14:19:52;15.10;86.70
16970;DHT22;8601;48.718;8.992;2022-11-02T14:22:20;15.20;87.40
16970;DHT22;8601;48.718;8.992;2022-11-02T14:25:12;15.00;85.70
16970;DHT22;8601;48.718;8.992;2022-11-02T14:27:40;14.80;87.40
16970;DHT22;8601;48.718;8.992;2022-11-02T14:30:42;14.70;87.10
16970;DHT22;8601;48.718;8.992;2022-11-02T14:33:45;14.50;87.10
16970;DHT22;8601;48.718;8.992;2022-11-02T14:36:47;14.50;89.30
16970;DHT22;8601;48.718;8.992;2022-11-02T14:39:21;14.40;89.10
16970;DHT22;8601;48.718;8.992;2022-11-02T14:42:06;14.40;88.50
16970;DHT22;8601;48.718;8.992;2022-11-02T14:45:09;14.50;89.20
16970;DHT22;8601;48.718;8.992;2022-11-02T14:47:39;14.50;89.10
16970;DHT22;8601;48.718;8.992;2022-11-02T14:50:11;14.60;89.50
16970;DHT22;8601;48.718;8.992;2022-11-02T14:52:43;14.60;89.00
16970;DHT22;8601;48.718;8.992;2022-11-02T14:55:22;14.60;89.30
16970;DHT22;8601;48.718;8.992;2022-11-02T14:57:55;14.50;89.50
16970;DHT22;8601;48.718;8.992;2022-11-02T15:00:30;14.50;90.40
16970;DHT22;8601;48.718;8.992;2022-11-02T15:03:00;14.50;90.80
16970;DHT22;8601;48.718;8.992;2022-11-02T15:05:30;14.50;91.50
16970;DHT22;8601;48.718;8.992;2022-11-02T15:08:01;14.30;93.70
16970;DHT22;8601;48.718;8.992;2022-11-02T15:10:36;14.20;90.90
16970;DHT22;8601;48.718;8.992;2022-11-02T15:13:34;14.20;90.30
16970;DHT22;8601;48.718;8.992;2022-11-02T15:16:23;14.20;90.50
16970;DHT22;8601;48.718;8.992;2022-11-02T15:18:51;14.20;90.60
16970;DHT22;8601;48.718;8.992;2022-11-02T15:21:24;14.10;90.80
16970;DHT22;8601;48.718;8.992;2022-11-02T15:24:08;14.00;93.30
16970;DHT22;8601;48.718;8.992;2022-11-02T15:26:44;13.80;94.70
16970;DHT22;8601;48.718;8.992;2022-11-02T15:29:21;13.60;94.80
16970;DHT22;8601;48.718;8.992;2022-11-02T15:31:56;13.50;95.30
16970;DHT22;8601;48.718;8.992;2022-11-02T15:34:33;13.40;95.00
16970;DHT22;8601;48.718;8.992;2022-11-02T15:37:01;13.30;96.00
16970;DHT22;8601;48.718;8.992;2022-11-02T15:39:29;13.20;96.50
16970;DHT22;8601;48.718;8.992;2022-11-02T15:42:01;13.10;96.50
16970;DHT22;8601;48.718;8.992;2022-11-02T15:45:04;13.00;96.40
16970;DHT22;8601;48.718;8.992;2022-11-02T15:47:43;12.80;96.80
16970;DHT22;8601;48.718;8.992;2022-11-02T15:50:19;12.60;96.20
16970;DHT22;8601;48.718;8.992;2022-11-02T15:53:02;12.40;96.70
16970;DHT22;8601;48.718;8.992;2022-11-02T15:55:37;12.30;97.30
16970;DHT22;8601;48.718;8.992;2022-11-02T15:58:11;12.20;98.00
16970;DHT22;8601;48.718;8.992;2022-11-02T16:01:03;12.10;98.40
16970;DHT22;8601;48.718;8.992;2022-11-02T16:03:31;12.00;97.50
16970;DHT22;8601;48.718;8.992;2022-11-02T16:05:58;11.90;97.20
16970;DHT22;8601;48.718;8.992;2022-11-02T16:08:31;11.80;97.10
16970;DHT22;8601;48.718;8.992;2022-11-02T16:11:03;11.70;97.40
16970;DHT22;8601;48.718;8.992;2022-11-02T16:13:32;11.60;97.90
16970;DHT22;8601;48.718;8.992;2022-11-02T16:16:04;11.60;98.00
16970;DHT22;8601;48.718;8.992;2022-11-02T16:18:35;11.60;97.50
16970;DHT22;8601;48.718;8.992;2022-11-02T16:21:03;11.60;98.10
16970;DHT22;8601;48.718;8.992;2022-11-02T16:23:33;11.50;97.90
16970;DHT22;8601;48.718;8.992;2022-11-02T16:26:02;11.40;97.50
16970;DHT22;8601;48.718;8.992;2022-11-02T16:28:31;11.30;98.00
16970;DHT22;8601;48.718;8.992;2022-11-02T16:31:00;11.20;99.00
16970;DHT22;8601;48.718;8.992;2022-11-02T16:33:29;11.10;98.90
16970;DHT22;8601;48.718;8.992;2022-11-02T16:35:57;11.10;99.70
16970;DHT22;8601;48.718;8.992;2022-11-02T16:38:25;11.10;99.30
16970;DHT22;8601;48.718;8.992;2022-11-02T16:40:53;11.00;99.10